sensor_id;sensor_type;location;lat;lon;timestamp;P1;durP1;ratioP1;P2;durP2;ratioP2
44750;SDS011;30477;48.224;11.470;2023-05-17T00:01:24;10.70;;;2.80;;
44750;SDS011;30477;48.224;11.470;2023-05-17T00:03:49;6.37;;;2.57;;
44750;SDS011;30477;48.224;11.470;2023-05-17T00:06:18;8.90;;;2.92;;
44750;SDS011;30477;48.224;11.470;2023-05-17T00:08:43;5.20;;;2.60;;
44750;SDS011;30477;48.224;11.470;2023-05-17T00:11:08;4.90;;;2.10;;
44750;SDS011;30477;48.224;11.470;2023-05-17T00:13:34;8.90;;;2.67;;
44750;SDS011;30477;48.224;11.470;2023-05-17T00:15:59;5.23;;;2.37;;
44750;SDS011;30477;48.224;11.470;2023-05-17T00:18:25;4.63;;;2.37;;
44750;SDS011;30477;48.224;11.470;2023-05-17T00:20:50;7.43;;;2.50;;
44750;SDS011;30477;48.224;11.470;2023-05-17T00:23:15;8.00;;;2.77;;
44750;SDS011;30477;48.224;11.470;2023-05-17T00:25:40;5.50;;;2.30;;
44750;SDS011;30477;48.224;11.470;2023-05-17T00:28:06;6.57;;;2.63;;
44750;SDS011;30477;48.224;11.470;2023-05-17T00:30:31;10.40;;;2.50;;
44750;SDS011;30477;48.224;11.470;2023-05-17T00:32:56;7.97;;;2.90;;
44750;SDS011;30477;48.224;11.470;2023-05-17T00:35:22;7.40;;;2.50;;
44750;SDS011;30477;48.224;11.470;2023-05-17T00:37:48;7.35;;;2.65;;
44750;SDS011;30477;48.224;11.470;2023-05-17T00:40:13;5.97;;;2.50;;
44750;SDS011;30477;48.224;11.470;2023-05-17T00:42:42;4.85;;;2.40;;
44750;SDS011;30477;48.224;11.470;2023-05-17T00:45:08;7.30;;;2.90;;
44750;SDS011;30477;48.224;11.470;2023-05-17T00:47:33;12.75;;;2.75;;
44750;SDS011;30477;48.224;11.470;2023-05-17T00:49:59;6.47;;;2.50;;
44750;SDS011;30477;48.224;11.470;2023-05-17T00:52:24;6.17;;;2.70;;
44750;SDS011;30477;48.224;11.470;2023-05-17T00:54:50;7.15;;;2.80;;
44750;SDS011;30477;48.224;11.470;2023-05-17T00:57:16;8.57;;;2.90;;
44750;SDS011;30477;48.224;11.470;2023-05-17T00:59:43;7.80;;;2.97;;
44750;SDS011;30477;48.224;11.470;2023-05-17T01:02:09;6.22;;;3.35;;
44750;SDS011;30477;48.224;11.470;2023-05-17T01:04:35;7.13;;;2.92;;
44750;SDS011;30477;48.224;11.470;2023-05-17T01:07:01;10.85;;;3.30;;
44750;SDS011;30477;48.224;11.470;2023-05-17T01:09:27;7.18;;;3.17;;
44750;SDS011;30477;48.224;11.470;2023-05-17T01:12:00;7.65;;;3.03;;
44750;SDS011;30477;48.224;11.470;2023-05-17T01:17:33;6.43;;;3.47;;
44750;SDS011;30477;48.224;11.470;2023-05-17T01:28:40;6.47;;;3.28;;
44750;SDS011;30477;48.224;11.470;2023-05-17T01:31:08;8.93;;;3.58;;
44750;SDS011;30477;48.224;11.470;2023-05-17T01:33:35;10.43;;;3.47;;
44750;SDS011;30477;48.224;11.470;2023-05-17T01:36:01;10.07;;;4.10;;
44750;SDS011;30477;48.224;11.470;2023-05-17T01:38:26;8.77;;;3.40;;
44750;SDS011;30477;48.224;11.470;2023-05-17T01:40:57;14.27;;;3.67;;
44750;SDS011;30477;48.224;11.470;2023-05-17T01:51:45;7.68;;;3.60;;
44750;SDS011;30477;48.224;11.470;2023-05-17T01:54:13;8.88;;;4.07;;
44750;SDS011;30477;48.224;11.470;2023-05-17T01:56:45;6.07;;;3.55;;
44750;SDS011;30477;48.224;11.470;2023-05-17T01:59:14;10.63;;;3.95;;
44750;SDS011;30477;48.224;11.470;2023-05-17T02:01:44;6.90;;;3.67;;
44750;SDS011;30477;48.224;11.470;2023-05-17T02:04:11;8.27;;;3.80;;
44750;SDS011;30477;48.224;11.470;2023-05-17T02:06:36;7.87;;;4.10;;
44750;SDS011;30477;48.224;11.470;2023-05-17T02:09:02;9.17;;;3.90;;
44750;SDS011;30477;48.224;11.470;2023-05-17T02:11:27;10.15;;;3.65;;
44750;SDS011;30477;48.224;11.470;2023-05-17T02:13:53;9.27;;;3.70;;
44750;SDS011;30477;48.224;11.470;2023-05-17T02:16:18;9.70;;;3.80;;
44750;SDS011;30477;48.224;11.470;2023-05-17T02:18:43;9.03;;;3.90;;
44750;SDS011;30477;48.224;11.470;2023-05-17T02:21:09;6.97;;;3.83;;
44750;SDS011;30477;48.224;11.470;2023-05-17T02:23:35;6.45;;;3.60;;
44750;SDS011;30477;48.224;11.470;2023-05-17T02:26:01;6.43;;;3.20;;
44750;SDS011;30477;48.224;11.470;2023-05-17T02:28:27;7.17;;;3.33;;
44750;SDS011;30477;48.224;11.470;2023-05-17T02:30:52;6.77;;;4.40;;
44750;SDS011;30477;48.224;11.470;2023-05-17T02:33:18;5.93;;;3.25;;
44750;SDS011;30477;48.224;11.470;2023-05-17T02:35:43;6.13;;;3.20;;
44750;SDS011;30477;48.224;11.470;2023-05-17T02:38:09;6.07;;;3.10;;
44750;SDS011;30477;48.224;11.470;2023-05-17T02:40:34;8.10;;;3.17;;
44750;SDS011;30477;48.224;11.470;2023-05-17T02:43:00;7.03;;;3.73;;
44750;SDS011;30477;48.224;11.470;2023-05-17T02:45:25;6.10;;;3.50;;
44750;SDS011;30477;48.224;11.470;2023-05-17T02:47:50;6.97;;;3.03;;
44750;SDS011;30477;48.224;11.470;2023-05-17T02:50:16;5.23;;;3.13;;
44750;SDS011;30477;48.224;11.470;2023-05-17T02:52:41;7.47;;;3.40;;
44750;SDS011;30477;48.224;11.470;2023-05-17T02:55:06;5.17;;;3.17;;
44750;SDS011;30477;48.224;11.470;2023-05-17T02:57:32;10.18;;;3.40;;
44750;SDS011;30477;48.224;11.470;2023-05-17T02:59:57;7.13;;;3.23;;
44750;SDS011;30477;48.224;11.470;2023-05-17T03:02:23;6.23;;;3.00;;
44750;SDS011;30477;48.224;11.470;2023-05-17T03:04:48;5.87;;;2.93;;
44750;SDS011;30477;48.224;11.470;2023-05-17T03:07:13;10.60;;;3.33;;
44750;SDS011;30477;48.224;11.470;2023-05-17T03:09:39;13.00;;;3.90;;
44750;SDS011;30477;48.224;11.470;2023-05-17T03:12:06;8.55;;;2.97;;
44750;SDS011;30477;48.224;11.470;2023-05-17T03:14:32;11.65;;;3.28;;
44750;SDS011;30477;48.224;11.470;2023-05-17T03:16:57;5.73;;;2.77;;
44750;SDS011;30477;48.224;11.470;2023-05-17T03:19:22;7.60;;;3.20;;
44750;SDS011;30477;48.224;11.470;2023-05-17T03:21:48;8.47;;;3.00;;
44750;SDS011;30477;48.224;11.470;2023-05-17T03:24:13;8.07;;;3.20;;
44750;SDS011;30477;48.224;11.470;2023-05-17T03:26:38;7.27;;;2.90;;
44750;SDS011;30477;48.224;11.470;2023-05-17T03:29:04;8.50;;;2.93;;
44750;SDS011;30477;48.224;11.470;2023-05-17T03:31:29;8.33;;;3.40;;
44750;SDS011;30477;48.224;11.470;2023-05-17T03:33:55;9.03;;;3.23;;
44750;SDS011;30477;48.224;11.470;2023-05-17T03:36:20;8.83;;;2.87;;
44750;SDS011;30477;48.224;11.470;2023-05-17T03:38:45;4.10;;;2.63;;
44750;SDS011;30477;48.224;11.470;2023-05-17T03:41:11;3.80;;;2.50;;
44750;SDS011;30477;48.224;11.470;2023-05-17T03:43:36;4.30;;;2.70;;
44750;SDS011;30477;48.224;11.470;2023-05-17T03:46:02;7.30;;;3.33;;
44750;SDS011;30477;48.224;11.470;2023-05-17T03:48:27;8.07;;;2.67;;
44750;SDS011;30477;48.224;11.470;2023-05-17T03:50:53;9.40;;;3.20;;
44750;SDS011;30477;48.224;11.470;2023-05-17T03:53:18;6.37;;;3.10;;
44750;SDS011;30477;48.224;11.470;2023-05-17T03:55:43;7.67;;;3.03;;
44750;SDS011;30477;48.224;11.470;2023-05-17T03:58:09;11.20;;;2.95;;
44750;SDS011;30477;48.224;11.470;2023-05-17T04:00:34;8.33;;;2.73;;
44750;SDS011;30477;48.224;11.470;2023-05-17T04:03:00;3.83;;;2.47;;
44750;SDS011;30477;48.224;11.470;2023-05-17T04:05:25;7.00;;;2.50;;
44750;SDS011;30477;48.224;11.470;2023-05-17T04:07:51;7.07;;;2.40;;
44750;SDS011;30477;48.224;11.470;2023-05-17T04:10:16;6.47;;;2.97;;
44750;SDS011;30477;48.224;11.470;2023-05-17T04:12:42;6.40;;;2.60;;
44750;SDS011;30477;48.224;11.470;2023-05-17T04:15:07;8.53;;;2.60;;
44750;SDS011;30477;48.224;11.470;2023-05-17T04:17:33;4.28;;;2.45;;
44750;SDS011;30477;48.224;11.470;2023-05-17T04:19:58;6.13;;;2.97;;
44750;SDS011;30477;48.224;11.470;2023-05-17T04:22:23;8.10;;;2.80;;
44750;SDS011;30477;48.224;11.470;2023-05-17T04:24:49;4.27;;;2.57;;
44750;SDS011;30477;48.224;11.470;2023-05-17T04:27:14;8.30;;;3.00;;
44750;SDS011;30477;48.224;11.470;2023-05-17T04:29:40;8.67;;;2.90;;
44750;SDS011;30477;48.224;11.470;2023-05-17T04:32:06;7.23;;;2.50;;
44750;SDS011;30477;48.224;11.470;2023-05-17T04:34:32;5.80;;;2.40;;
44750;SDS011;30477;48.224;11.470;2023-05-17T04:36:57;5.03;;;2.40;;
44750;SDS011;30477;48.224;11.470;2023-05-17T04:39:23;6.90;;;2.70;;
44750;SDS011;30477;48.224;11.470;2023-05-17T04:41:48;7.93;;;3.03;;
44750;SDS011;30477;48.224;11.470;2023-05-17T04:44:14;7.07;;;2.50;;
44750;SDS011;30477;48.224;11.470;2023-05-17T04:46:39;6.73;;;2.43;;
44750;SDS011;30477;48.224;11.470;2023-05-17T04:49:05;8.23;;;3.17;;
44750;SDS011;30477;48.224;11.470;2023-05-17T04:51:31;5.40;;;2.60;;
44750;SDS011;30477;48.224;11.470;2023-05-17T04:53:56;7.47;;;2.63;;
44750;SDS011;30477;48.224;11.470;2023-05-17T04:56:24;3.88;;;2.67;;
44750;SDS011;30477;48.224;11.470;2023-05-17T04:58:50;6.38;;;2.22;;
44750;SDS011;30477;48.224;11.470;2023-05-17T05:01:15;6.80;;;2.47;;
44750;SDS011;30477;48.224;11.470;2023-05-17T05:03:41;3.70;;;2.20;;
44750;SDS011;30477;48.224;11.470;2023-05-17T05:06:06;7.90;;;2.40;;
44750;SDS011;30477;48.224;11.470;2023-05-17T05:08:32;5.33;;;2.27;;
44750;SDS011;30477;48.224;11.470;2023-05-17T05:10:58;7.43;;;2.40;;
44750;SDS011;30477;48.224;11.470;2023-05-17T05:13:23;7.83;;;2.20;;
44750;SDS011;30477;48.224;11.470;2023-05-17T05:15:49;3.47;;;2.20;;
44750;SDS011;30477;48.224;11.470;2023-05-17T05:18:14;4.15;;;2.15;;
44750;SDS011;30477;48.224;11.470;2023-05-17T05:20:40;4.40;;;2.07;;
44750;SDS011;30477;48.224;11.470;2023-05-17T05:23:05;5.43;;;2.30;;
44750;SDS011;30477;48.224;11.470;2023-05-17T05:25:31;4.33;;;2.50;;
44750;SDS011;30477;48.224;11.470;2023-05-17T05:27:56;3.88;;;2.78;;
44750;SDS011;30477;48.224;11.470;2023-05-17T05:30:22;4.00;;;2.07;;
44750;SDS011;30477;48.224;11.470;2023-05-17T05:32:48;4.63;;;2.20;;
44750;SDS011;30477;48.224;11.470;2023-05-17T05:37:40;5.40;;;2.03;;
44750;SDS011;30477;48.224;11.470;2023-05-17T05:40:06;5.43;;;2.03;;
44750;SDS011;30477;48.224;11.470;2023-05-17T05:42:32;3.00;;;1.98;;
44750;SDS011;30477;48.224;11.470;2023-05-17T05:44:58;5.63;;;2.17;;
44750;SDS011;30477;48.224;11.470;2023-05-17T05:47:23;7.23;;;2.23;;
44750;SDS011;30477;48.224;11.470;2023-05-17T05:49:48;6.53;;;1.97;;
44750;SDS011;30477;48.224;11.470;2023-05-17T05:52:14;4.00;;;2.00;;
44750;SDS011;30477;48.224;11.470;2023-05-17T05:54:39;2.43;;;1.70;;
44750;SDS011;30477;48.224;11.470;2023-05-17T05:57:05;3.30;;;1.80;;
44750;SDS011;30477;48.224;11.470;2023-05-17T05:59:30;3.77;;;2.00;;
44750;SDS011;30477;48.224;11.470;2023-05-17T06:01:55;3.97;;;1.90;;
44750;SDS011;30477;48.224;11.470;2023-05-17T06:04:21;11.53;;;2.30;;
44750;SDS011;30477;48.224;11.470;2023-05-17T06:06:46;6.70;;;2.00;;
44750;SDS011;30477;48.224;11.470;2023-05-17T06:09:11;7.77;;;2.10;;
44750;SDS011;30477;48.224;11.470;2023-05-17T06:11:37;6.47;;;2.17;;
44750;SDS011;30477;48.224;11.470;2023-05-17T06:14:03;6.30;;;2.20;;
44750;SDS011;30477;48.224;11.470;2023-05-17T06:16:28;4.60;;;1.80;;
44750;SDS011;30477;48.224;11.470;2023-05-17T06:18:53;5.83;;;2.10;;
44750;SDS011;30477;48.224;11.470;2023-05-17T06:21:19;8.53;;;1.80;;
44750;SDS011;30477;48.224;11.470;2023-05-17T06:23:44;4.47;;;2.13;;
44750;SDS011;30477;48.224;11.470;2023-05-17T06:26:10;5.27;;;2.00;;
44750;SDS011;30477;48.224;11.470;2023-05-17T06:28:35;5.73;;;1.93;;
44750;SDS011;30477;48.224;11.470;2023-05-17T06:31:01;4.22;;;1.70;;
44750;SDS011;30477;48.224;11.470;2023-05-17T06:33:27;5.67;;;2.23;;
44750;SDS011;30477;48.224;11.470;2023-05-17T06:35:53;4.90;;;1.80;;
44750;SDS011;30477;48.224;11.470;2023-05-17T06:38:19;6.22;;;2.00;;
44750;SDS011;30477;48.224;11.470;2023-05-17T06:40:44;3.90;;;1.70;;
44750;SDS011;30477;48.224;11.470;2023-05-17T06:43:10;4.20;;;1.80;;
44750;SDS011;30477;48.224;11.470;2023-05-17T06:45:35;3.90;;;1.80;;
44750;SDS011;30477;48.224;11.470;2023-05-17T06:48:00;7.60;;;2.07;;
44750;SDS011;30477;48.224;11.470;2023-05-17T06:50:26;5.50;;;1.80;;
44750;SDS011;30477;48.224;11.470;2023-05-17T06:52:52;6.68;;;1.73;;
44750;SDS011;30477;48.224;11.470;2023-05-17T06:55:17;3.13;;;1.57;;
44750;SDS011;30477;48.224;11.470;2023-05-17T06:57:43;6.17;;;1.70;;
44750;SDS011;30477;48.224;11.470;2023-05-17T07:00:08;4.40;;;1.60;;
44750;SDS011;30477;48.224;11.470;2023-05-17T07:05:00;4.50;;;1.67;;
44750;SDS011;30477;48.224;11.470;2023-05-17T07:07:26;4.70;;;1.47;;
44750;SDS011;30477;48.224;11.470;2023-05-17T07:09:51;6.77;;;1.73;;
44750;SDS011;30477;48.224;11.470;2023-05-17T07:12:16;4.53;;;1.90;;
44750;SDS011;30477;48.224;11.470;2023-05-17T07:14:42;6.87;;;1.80;;
44750;SDS011;30477;48.224;11.470;2023-05-17T07:17:09;4.83;;;1.60;;
44750;SDS011;30477;48.224;11.470;2023-05-17T07:19:35;5.10;;;1.65;;
44750;SDS011;30477;48.224;11.470;2023-05-17T07:22:01;3.77;;;1.30;;
44750;SDS011;30477;48.224;11.470;2023-05-17T07:24:26;3.97;;;1.70;;
44750;SDS011;30477;48.224;11.470;2023-05-17T07:26:51;2.97;;;1.47;;
44750;SDS011;30477;48.224;11.470;2023-05-17T07:29:17;4.33;;;1.43;;
44750;SDS011;30477;48.224;11.470;2023-05-17T07:31:42;3.97;;;1.77;;
44750;SDS011;30477;48.224;11.470;2023-05-17T07:34:07;3.77;;;1.43;;
44750;SDS011;30477;48.224;11.470;2023-05-17T07:36:33;5.13;;;1.53;;
44750;SDS011;30477;48.224;11.470;2023-05-17T07:38:58;5.23;;;1.73;;
44750;SDS011;30477;48.224;11.470;2023-05-17T07:41:23;2.70;;;1.27;;
44750;SDS011;30477;48.224;11.470;2023-05-17T07:46:15;4.93;;;1.77;;
44750;SDS011;30477;48.224;11.470;2023-05-17T07:51:06;6.23;;;1.90;;
44750;SDS011;30477;48.224;11.470;2023-05-17T07:53:32;4.30;;;1.63;;
44750;SDS011;30477;48.224;11.470;2023-05-17T07:55:57;2.30;;;1.02;;
44750;SDS011;30477;48.224;11.470;2023-05-17T07:58:22;2.97;;;1.10;;
44750;SDS011;30477;48.224;11.470;2023-05-17T08:00:48;3.77;;;1.40;;
44750;SDS011;30477;48.224;11.470;2023-05-17T08:03:13;5.43;;;1.95;;
44750;SDS011;30477;48.224;11.470;2023-05-17T08:05:39;4.88;;;1.90;;
44750;SDS011;30477;48.224;11.470;2023-05-17T08:10:29;4.87;;;1.40;;
44750;SDS011;30477;48.224;11.470;2023-05-17T08:12:55;3.90;;;1.50;;
44750;SDS011;30477;48.224;11.470;2023-05-17T08:17:45;3.55;;;1.30;;
44750;SDS011;30477;48.224;11.470;2023-05-17T08:22:36;4.80;;;1.80;;
44750;SDS011;30477;48.224;11.470;2023-05-17T08:27:27;4.97;;;1.45;;
44750;SDS011;30477;48.224;11.470;2023-05-17T08:29:55;4.38;;;1.58;;
44750;SDS011;30477;48.224;11.470;2023-05-17T08:32:21;3.97;;;1.77;;
44750;SDS011;30477;48.224;11.470;2023-05-17T08:37:12;2.27;;;1.07;;
44750;SDS011;30477;48.224;11.470;2023-05-17T08:39:38;3.53;;;1.48;;
44750;SDS011;30477;48.224;11.470;2023-05-17T08:44:31;4.22;;;1.55;;
44750;SDS011;30477;48.224;11.470;2023-05-17T08:46:57;3.10;;;1.38;;
44750;SDS011;30477;48.224;11.470;2023-05-17T08:49:24;3.60;;;1.35;;
44750;SDS011;30477;48.224;11.470;2023-05-17T08:51:53;2.47;;;1.30;;
44750;SDS011;30477;48.224;11.470;2023-05-17T08:54:19;4.47;;;1.30;;
44750;SDS011;30477;48.224;11.470;2023-05-17T08:56:45;3.88;;;1.30;;
44750;SDS011;30477;48.224;11.470;2023-05-17T08:59:16;3.47;;;1.45;;
44750;SDS011;30477;48.224;11.470;2023-05-17T09:01:43;3.38;;;1.40;;
44750;SDS011;30477;48.224;11.470;2023-05-17T09:04:11;3.88;;;1.45;;
44750;SDS011;30477;48.224;11.470;2023-05-17T09:06:37;4.80;;;1.70;;
44750;SDS011;30477;48.224;11.470;2023-05-17T09:09:03;3.55;;;1.50;;
44750;SDS011;30477;48.224;11.470;2023-05-17T09:11:31;4.45;;;1.55;;
44750;SDS011;30477;48.224;11.470;2023-05-17T09:13:58;5.60;;;1.60;;
44750;SDS011;30477;48.224;11.470;2023-05-17T09:16:24;3.72;;;1.50;;
44750;SDS011;30477;48.224;11.470;2023-05-17T09:18:55;3.13;;;1.30;;
44750;SDS011;30477;48.224;11.470;2023-05-17T09:21:22;3.85;;;1.50;;
44750;SDS011;30477;48.224;11.470;2023-05-17T09:23:49;3.83;;;1.40;;
44750;SDS011;30477;48.224;11.470;2023-05-17T09:26:16;2.65;;;1.35;;
44750;SDS011;30477;48.224;11.470;2023-05-17T09:28:42;3.20;;;1.70;;
44750;SDS011;30477;48.224;11.470;2023-05-17T09:31:08;3.40;;;1.50;;
44750;SDS011;30477;48.224;11.470;2023-05-17T09:33:48;3.83;;;1.40;;
44750;SDS011;30477;48.224;11.470;2023-05-17T09:36:14;2.15;;;1.00;;
44750;SDS011;30477;48.224;11.470;2023-05-17T09:38:42;4.28;;;1.45;;
44750;SDS011;30477;48.224;11.470;2023-05-17T09:43:33;4.30;;;1.57;;
44750;SDS011;30477;48.224;11.470;2023-05-17T09:48:26;3.10;;;1.07;;
44750;SDS011;30477;48.224;11.470;2023-05-17T09:50:52;5.18;;;1.30;;
44750;SDS011;30477;48.224;11.470;2023-05-17T09:55:54;4.45;;;1.40;;
44750;SDS011;30477;48.224;11.470;2023-05-17T09:58:21;4.68;;;1.45;;
44750;SDS011;30477;48.224;11.470;2023-05-17T10:03:16;4.60;;;1.60;;
44750;SDS011;30477;48.224;11.470;2023-05-17T10:08:08;3.63;;;1.50;;
44750;SDS011;30477;48.224;11.470;2023-05-17T10:10:37;3.45;;;1.42;;
44750;SDS011;30477;48.224;11.470;2023-05-17T10:13:03;5.22;;;1.40;;
44750;SDS011;30477;48.224;11.470;2023-05-17T10:15:30;4.32;;;1.50;;
44750;SDS011;30477;48.224;11.470;2023-05-17T10:17:57;2.75;;;1.33;;
44750;SDS011;30477;48.224;11.470;2023-05-17T10:20:24;5.55;;;1.75;;
44750;SDS011;30477;48.224;11.470;2023-05-17T10:22:50;5.13;;;2.10;;
44750;SDS011;30477;48.224;11.470;2023-05-17T10:25:17;3.38;;;1.70;;
44750;SDS011;30477;48.224;11.470;2023-05-17T10:27:43;3.20;;;1.58;;
44750;SDS011;30477;48.224;11.470;2023-05-17T10:30:09;3.45;;;1.50;;
44750;SDS011;30477;48.224;11.470;2023-05-17T10:32:36;3.35;;;1.55;;
44750;SDS011;30477;48.224;11.470;2023-05-17T10:35:02;4.32;;;1.70;;
44750;SDS011;30477;48.224;11.470;2023-05-17T10:37:29;4.60;;;1.50;;
44750;SDS011;30477;48.224;11.470;2023-05-17T10:39:56;4.50;;;1.63;;
44750;SDS011;30477;48.224;11.470;2023-05-17T10:42:21;4.82;;;1.85;;
44750;SDS011;30477;48.224;11.470;2023-05-17T10:44:47;6.28;;;2.05;;
44750;SDS011;30477;48.224;11.470;2023-05-17T10:47:13;6.50;;;2.00;;
44750;SDS011;30477;48.224;11.470;2023-05-17T10:52:16;3.35;;;1.70;;
44750;SDS011;30477;48.224;11.470;2023-05-17T10:54:43;4.80;;;1.70;;
44750;SDS011;30477;48.224;11.470;2023-05-17T10:57:22;4.28;;;1.88;;
44750;SDS011;30477;48.224;11.470;2023-05-17T10:59:58;2.63;;;1.70;;
44750;SDS011;30477;48.224;11.470;2023-05-17T11:02:26;4.53;;;1.90;;
44750;SDS011;30477;48.224;11.470;2023-05-17T11:04:53;4.57;;;1.70;;
44750;SDS011;30477;48.224;11.470;2023-05-17T11:07:37;4.93;;;2.00;;
44750;SDS011;30477;48.224;11.470;2023-05-17T11:10:07;3.72;;;2.15;;
44750;SDS011;30477;48.224;11.470;2023-05-17T11:15:15;4.25;;;1.92;;
44750;SDS011;30477;48.224;11.470;2023-05-17T11:20:07;3.93;;;2.27;;
44750;SDS011;30477;48.224;11.470;2023-05-17T11:25:32;5.70;;;2.60;;
44750;SDS011;30477;48.224;11.470;2023-05-17T11:27:59;4.22;;;2.22;;
44750;SDS011;30477;48.224;11.470;2023-05-17T11:30:30;4.18;;;2.30;;
44750;SDS011;30477;48.224;11.470;2023-05-17T11:32:57;3.38;;;2.00;;
44750;SDS011;30477;48.224;11.470;2023-05-17T11:35:27;4.45;;;2.33;;
44750;SDS011;30477;48.224;11.470;2023-05-17T11:40:42;4.45;;;2.10;;
44750;SDS011;30477;48.224;11.470;2023-05-17T11:43:08;5.68;;;2.63;;
44750;SDS011;30477;48.224;11.470;2023-05-17T11:45:40;5.22;;;2.30;;
44750;SDS011;30477;48.224;11.470;2023-05-17T11:48:07;4.38;;;2.65;;
44750;SDS011;30477;48.224;11.470;2023-05-17T11:50:34;5.03;;;2.40;;
44750;SDS011;30477;48.224;11.470;2023-05-17T11:53:00;4.38;;;2.50;;
44750;SDS011;30477;48.224;11.470;2023-05-17T11:55:28;5.47;;;3.10;;
44750;SDS011;30477;48.224;11.470;2023-05-17T11:57:53;7.55;;;2.75;;
44750;SDS011;30477;48.224;11.470;2023-05-17T12:00:23;5.40;;;2.80;;
44750;SDS011;30477;48.224;11.470;2023-05-17T12:02:52;4.68;;;2.72;;
44750;SDS011;30477;48.224;11.470;2023-05-17T12:05:20;5.17;;;3.27;;
44750;SDS011;30477;48.224;11.470;2023-05-17T12:07:46;4.93;;;2.97;;
44750;SDS011;30477;48.224;11.470;2023-05-17T12:10:13;6.07;;;2.70;;
44750;SDS011;30477;48.224;11.470;2023-05-17T12:12:39;4.93;;;2.97;;
44750;SDS011;30477;48.224;11.470;2023-05-17T12:15:05;5.35;;;3.20;;
44750;SDS011;30477;48.224;11.470;2023-05-17T12:17:34;4.35;;;2.80;;
44750;SDS011;30477;48.224;11.470;2023-05-17T12:20:07;7.15;;;2.72;;
44750;SDS011;30477;48.224;11.470;2023-05-17T12:22:34;8.70;;;3.28;;
44750;SDS011;30477;48.224;11.470;2023-05-17T12:25:19;4.55;;;2.88;;
44750;SDS011;30477;48.224;11.470;2023-05-17T12:27:47;6.32;;;2.80;;
44750;SDS011;30477;48.224;11.470;2023-05-17T12:30:14;6.22;;;3.10;;
44750;SDS011;30477;48.224;11.470;2023-05-17T12:32:40;6.78;;;2.90;;
44750;SDS011;30477;48.224;11.470;2023-05-17T12:35:06;7.35;;;3.40;;
44750;SDS011;30477;48.224;11.470;2023-05-17T12:37:31;4.25;;;2.85;;
44750;SDS011;30477;48.224;11.470;2023-05-17T12:39:58;4.17;;;2.67;;
44750;SDS011;30477;48.224;11.470;2023-05-17T12:42:26;4.20;;;2.60;;
44750;SDS011;30477;48.224;11.470;2023-05-17T12:44:52;4.03;;;2.90;;
44750;SDS011;30477;48.224;11.470;2023-05-17T12:47:17;7.30;;;2.93;;
44750;SDS011;30477;48.224;11.470;2023-05-17T12:49:55;6.70;;;3.20;;
44750;SDS011;30477;48.224;11.470;2023-05-17T12:52:20;5.43;;;2.60;;
44750;SDS011;30477;48.224;11.470;2023-05-17T12:54:46;7.00;;;3.30;;
44750;SDS011;30477;48.224;11.470;2023-05-17T12:57:12;6.83;;;3.20;;
44750;SDS011;30477;48.224;11.470;2023-05-17T12:59:50;4.93;;;2.85;;
44750;SDS011;30477;48.224;11.470;2023-05-17T13:02:17;6.65;;;3.22;;
44750;SDS011;30477;48.224;11.470;2023-05-17T13:04:44;9.65;;;3.72;;
44750;SDS011;30477;48.224;11.470;2023-05-17T13:09:44;8.32;;;3.03;;
44750;SDS011;30477;48.224;11.470;2023-05-17T13:12:16;6.32;;;3.00;;
44750;SDS011;30477;48.224;11.470;2023-05-17T13:14:45;6.55;;;3.03;;
44750;SDS011;30477;48.224;11.470;2023-05-17T13:19:46;7.13;;;3.30;;
44750;SDS011;30477;48.224;11.470;2023-05-17T13:22:12;4.97;;;2.90;;
44750;SDS011;30477;48.224;11.470;2023-05-17T13:24:39;9.10;;;2.80;;
44750;SDS011;30477;48.224;11.470;2023-05-17T13:27:05;5.97;;;3.03;;
44750;SDS011;30477;48.224;11.470;2023-05-17T13:29:32;5.05;;;3.05;;
44750;SDS011;30477;48.224;11.470;2023-05-17T13:31:58;5.80;;;2.97;;
44750;SDS011;30477;48.224;11.470;2023-05-17T13:34:24;4.30;;;2.53;;
44750;SDS011;30477;48.224;11.470;2023-05-17T13:36:49;5.60;;;3.03;;
44750;SDS011;30477;48.224;11.470;2023-05-17T13:39:14;5.03;;;2.70;;
44750;SDS011;30477;48.224;11.470;2023-05-17T13:41:40;6.75;;;2.67;;
44750;SDS011;30477;48.224;11.470;2023-05-17T13:44:06;6.07;;;2.80;;
44750;SDS011;30477;48.224;11.470;2023-05-17T13:46:32;5.43;;;2.90;;
44750;SDS011;30477;48.224;11.470;2023-05-17T13:48:58;5.00;;;2.80;;
44750;SDS011;30477;48.224;11.470;2023-05-17T13:51:23;6.17;;;3.10;;
44750;SDS011;30477;48.224;11.470;2023-05-17T13:53:51;5.63;;;3.03;;
44750;SDS011;30477;48.224;11.470;2023-05-17T13:56:17;4.90;;;2.93;;
44750;SDS011;30477;48.224;11.470;2023-05-17T13:58:42;4.97;;;2.67;;
44750;SDS011;30477;48.224;11.470;2023-05-17T14:01:08;7.07;;;3.80;;
44750;SDS011;30477;48.224;11.470;2023-05-17T14:03:33;5.47;;;3.42;;
44750;SDS011;30477;48.224;11.470;2023-05-17T14:08:26;5.53;;;2.85;;
44750;SDS011;30477;48.224;11.470;2023-05-17T14:10:52;6.27;;;3.47;;
44750;SDS011;30477;48.224;11.470;2023-05-17T14:13:17;5.97;;;3.40;;
44750;SDS011;30477;48.224;11.470;2023-05-17T14:15:42;7.10;;;3.83;;
44750;SDS011;30477;48.224;11.470;2023-05-17T14:18:08;9.15;;;3.50;;
44750;SDS011;30477;48.224;11.470;2023-05-17T14:20:33;5.47;;;2.93;;
44750;SDS011;30477;48.224;11.470;2023-05-17T14:22:59;8.67;;;3.40;;
44750;SDS011;30477;48.224;11.470;2023-05-17T14:25:25;8.30;;;3.47;;
44750;SDS011;30477;48.224;11.470;2023-05-17T14:27:51;5.60;;;3.20;;
44750;SDS011;30477;48.224;11.470;2023-05-17T14:30:16;5.45;;;3.33;;
44750;SDS011;30477;48.224;11.470;2023-05-17T14:32:42;8.87;;;3.77;;
44750;SDS011;30477;48.224;11.470;2023-05-17T14:35:07;6.13;;;3.10;;
44750;SDS011;30477;48.224;11.470;2023-05-17T14:37:33;5.13;;;3.60;;
44750;SDS011;30477;48.224;11.470;2023-05-17T14:39:59;8.05;;;3.30;;
44750;SDS011;30477;48.224;11.470;2023-05-17T14:42:25;5.82;;;3.28;;
44750;SDS011;30477;48.224;11.470;2023-05-17T14:44:51;6.43;;;3.47;;
44750;SDS011;30477;48.224;11.470;2023-05-17T14:47:16;8.70;;;3.40;;
44750;SDS011;30477;48.224;11.470;2023-05-17T14:49:42;5.13;;;3.33;;
44750;SDS011;30477;48.224;11.470;2023-05-17T14:52:08;5.43;;;3.10;;
44750;SDS011;30477;48.224;11.470;2023-05-17T14:54:34;6.90;;;3.58;;
44750;SDS011;30477;48.224;11.470;2023-05-17T14:56:59;6.80;;;3.60;;
44750;SDS011;30477;48.224;11.470;2023-05-17T14:59:25;4.57;;;3.03;;
44750;SDS011;30477;48.224;11.470;2023-05-17T15:01:51;4.78;;;2.95;;
44750;SDS011;30477;48.224;11.470;2023-05-17T15:04:17;4.85;;;3.20;;
44750;SDS011;30477;48.224;11.470;2023-05-17T15:06:43;6.07;;;3.77;;
44750;SDS011;30477;48.224;11.470;2023-05-17T15:09:08;7.27;;;3.57;;
44750;SDS011;30477;48.224;11.470;2023-05-17T15:11:37;7.43;;;3.78;;
44750;SDS011;30477;48.224;11.470;2023-05-17T15:14:02;7.47;;;3.50;;
44750;SDS011;30477;48.224;11.470;2023-05-17T15:16:28;9.43;;;3.63;;
44750;SDS011;30477;48.224;11.470;2023-05-17T15:18:53;5.80;;;3.60;;
44750;SDS011;30477;48.224;11.470;2023-05-17T15:21:18;6.97;;;3.87;;
44750;SDS011;30477;48.224;11.470;2023-05-17T15:23:44;10.50;;;3.57;;
44750;SDS011;30477;48.224;11.470;2023-05-17T15:26:10;7.10;;;3.65;;
44750;SDS011;30477;48.224;11.470;2023-05-17T15:28:35;5.90;;;3.07;;
44750;SDS011;30477;48.224;11.470;2023-05-17T15:31:02;7.80;;;3.90;;
44750;SDS011;30477;48.224;11.470;2023-05-17T15:33:34;4.55;;;3.38;;
44750;SDS011;30477;48.224;11.470;2023-05-17T15:36:00;5.28;;;2.85;;
44750;SDS011;30477;48.224;11.470;2023-05-17T15:38:25;6.30;;;4.00;;
44750;SDS011;30477;48.224;11.470;2023-05-17T15:41:01;7.50;;;3.50;;
44750;SDS011;30477;48.224;11.470;2023-05-17T15:43:30;6.10;;;3.53;;
44750;SDS011;30477;48.224;11.470;2023-05-17T15:45:57;7.55;;;4.38;;